18°C Temp
17°C Dewpoint
% Humidity
Temperature
10 KM/H
6 MPH
5 KTS
90°
Due East

Wind Speed
Clear
Conditions
Pressure 1008.92 (hPa) - 29.79 (in)
Visibility 6.2 (mi) - 10.0 (km)

Current Conditions
EPKT
Location 6km (3.2mi)
Metar :EPKT 142030Z 09005KT CAVOK 18/17 Q1009
Sun 14th August 22:30 pm

Airport
  Metar Aviation API Data Provided by https://www.checkwx.com/ CSS/SVG/PHP scripts by weather34.com © 2015-2022